sensor_id;sensor_type;location;lat;lon;timestamp;P1;durP1;ratioP1;P2;durP2;ratioP2
42886;SDS011;29032;56.028;92.904;2023-07-20T00:00:55;6.00;;;4.95;;
42886;SDS011;29032;56.028;92.904;2023-07-20T00:05:57;5.13;;;4.43;;
42886;SDS011;29032;56.028;92.904;2023-07-20T00:10:59;6.00;;;5.05;;
42886;SDS011;29032;56.028;92.904;2023-07-20T00:16:03;5.60;;;4.57;;
42886;SDS011;29032;56.028;92.904;2023-07-20T00:21:05;4.38;;;3.97;;
42886;SDS011;29032;56.028;92.904;2023-07-20T00:26:07;5.53;;;5.03;;
42886;SDS011;29032;56.028;92.904;2023-07-20T00:31:11;8.45;;;6.10;;
42886;SDS011;29032;56.028;92.904;2023-07-20T00:36:13;7.07;;;6.38;;
42886;SDS011;29032;56.028;92.904;2023-07-20T00:41:17;8.43;;;5.72;;
42886;SDS011;29032;56.028;92.904;2023-07-20T00:46:20;10.85;;;6.68;;
42886;SDS011;29032;56.028;92.904;2023-07-20T00:51:25;6.07;;;5.45;;
42886;SDS011;29032;56.028;92.904;2023-07-20T00:56:28;9.25;;;5.57;;
42886;SDS011;29032;56.028;92.904;2023-07-20T01:01:31;6.43;;;5.28;;
42886;SDS011;29032;56.028;92.904;2023-07-20T01:06:36;12.13;;;5.88;;
42886;SDS011;29032;56.028;92.904;2023-07-20T01:11:49;7.68;;;6.05;;
42886;SDS011;29032;56.028;92.904;2023-07-20T01:17:03;7.13;;;5.43;;
42886;SDS011;29032;56.028;92.904;2023-07-20T01:22:09;9.50;;;5.88;;
42886;SDS011;29032;56.028;92.904;2023-07-20T01:33:06;10.10;;;6.20;;
42886;SDS011;29032;56.028;92.904;2023-07-20T01:38:09;6.93;;;5.65;;
42886;SDS011;29032;56.028;92.904;2023-07-20T01:43:12;8.38;;;5.82;;
42886;SDS011;29032;56.028;92.904;2023-07-20T01:48:17;7.03;;;5.40;;
42886;SDS011;29032;56.028;92.904;2023-07-20T01:53:19;8.90;;;5.65;;
42886;SDS011;29032;56.028;92.904;2023-07-20T01:58:23;7.95;;;5.35;;
42886;SDS011;29032;56.028;92.904;2023-07-20T02:03:26;6.70;;;5.47;;
42886;SDS011;29032;56.028;92.904;2023-07-20T02:08:28;7.88;;;5.50;;
42886;SDS011;29032;56.028;92.904;2023-07-20T02:13:32;6.78;;;5.10;;
42886;SDS011;29032;56.028;92.904;2023-07-20T02:18:35;5.68;;;5.18;;
42886;SDS011;29032;56.028;92.904;2023-07-20T02:23:37;7.65;;;5.38;;
42886;SDS011;29032;56.028;92.904;2023-07-20T02:28:39;6.95;;;4.85;;
42886;SDS011;29032;56.028;92.904;2023-07-20T02:33:43;7.20;;;5.30;;
42886;SDS011;29032;56.028;92.904;2023-07-20T02:38:45;9.40;;;5.85;;
42886;SDS011;29032;56.028;92.904;2023-07-20T02:43:47;7.05;;;5.40;;
42886;SDS011;29032;56.028;92.904;2023-07-20T02:48:50;9.27;;;5.07;;
42886;SDS011;29032;56.028;92.904;2023-07-20T02:53:53;6.53;;;5.75;;
42886;SDS011;29032;56.028;92.904;2023-07-20T02:58:55;5.93;;;5.25;;
42886;SDS011;29032;56.028;92.904;2023-07-20T03:03:58;8.20;;;5.35;;
42886;SDS011;29032;56.028;92.904;2023-07-20T03:09:01;6.43;;;5.82;;
42886;SDS011;29032;56.028;92.904;2023-07-20T03:14:03;8.15;;;5.32;;
42886;SDS011;29032;56.028;92.904;2023-07-20T03:19:06;5.60;;;4.43;;
42886;SDS011;29032;56.028;92.904;2023-07-20T03:24:09;5.13;;;4.63;;
42886;SDS011;29032;56.028;92.904;2023-07-20T03:29:12;6.80;;;4.80;;
42886;SDS011;29032;56.028;92.904;2023-07-20T03:34:15;6.53;;;4.50;;
42886;SDS011;29032;56.028;92.904;2023-07-20T03:39:17;7.07;;;4.13;;
42886;SDS011;29032;56.028;92.904;2023-07-20T03:44:19;8.88;;;4.32;;
42886;SDS011;29032;56.028;92.904;2023-07-20T03:49:23;7.85;;;4.70;;
42886;SDS011;29032;56.028;92.904;2023-07-20T03:54:25;6.57;;;4.20;;
42886;SDS011;29032;56.028;92.904;2023-07-20T03:59:27;8.77;;;3.90;;
42886;SDS011;29032;56.028;92.904;2023-07-20T04:04:30;8.00;;;4.53;;
42886;SDS011;29032;56.028;92.904;2023-07-20T04:09:32;3.88;;;3.47;;
42886;SDS011;29032;56.028;92.904;2023-07-20T04:14:34;5.68;;;3.78;;
42886;SDS011;29032;56.028;92.904;2023-07-20T04:19:38;5.75;;;3.55;;
42886;SDS011;29032;56.028;92.904;2023-07-20T04:24:40;6.53;;;3.60;;
42886;SDS011;29032;56.028;92.904;2023-07-20T04:29:42;3.83;;;3.42;;
42886;SDS011;29032;56.028;92.904;2023-07-20T04:34:46;4.80;;;4.00;;
42886;SDS011;29032;56.028;92.904;2023-07-20T04:39:48;5.65;;;3.28;;
42886;SDS011;29032;56.028;92.904;2023-07-20T04:44:51;5.35;;;3.65;;
42886;SDS011;29032;56.028;92.904;2023-07-20T04:49:55;3.70;;;3.13;;
42886;SDS011;29032;56.028;92.904;2023-07-20T04:54:57;4.43;;;3.47;;
42886;SDS011;29032;56.028;92.904;2023-07-20T04:59:59;4.45;;;3.20;;
42886;SDS011;29032;56.028;92.904;2023-07-20T05:05:03;3.38;;;2.53;;
42886;SDS011;29032;56.028;92.904;2023-07-20T05:10:06;3.53;;;2.40;;
42886;SDS011;29032;56.028;92.904;2023-07-20T05:15:09;7.72;;;2.88;;
42886;SDS011;29032;56.028;92.904;2023-07-20T05:20:15;3.17;;;2.42;;
42886;SDS011;29032;56.028;92.904;2023-07-20T05:25:17;5.32;;;2.47;;
42886;SDS011;29032;56.028;92.904;2023-07-20T05:30:20;3.53;;;2.42;;
42886;SDS011;29032;56.028;92.904;2023-07-20T05:35:23;6.15;;;2.42;;
42886;SDS011;29032;56.028;92.904;2023-07-20T05:40:26;4.07;;;2.43;;
42886;SDS011;29032;56.028;92.904;2023-07-20T05:45:28;5.10;;;2.40;;
42886;SDS011;29032;56.028;92.904;2023-07-20T05:50:32;3.83;;;2.47;;
42886;SDS011;29032;56.028;92.904;2023-07-20T05:55:34;3.85;;;2.80;;
42886;SDS011;29032;56.028;92.904;2023-07-20T06:00:36;2.92;;;2.38;;
42886;SDS011;29032;56.028;92.904;2023-07-20T06:05:40;4.45;;;2.53;;
42886;SDS011;29032;56.028;92.904;2023-07-20T06:10:42;3.22;;;2.50;;
42886;SDS011;29032;56.028;92.904;2023-07-20T06:15:44;4.75;;;2.63;;
42886;SDS011;29032;56.028;92.904;2023-07-20T06:20:49;3.95;;;2.58;;
42886;SDS011;29032;56.028;92.904;2023-07-20T06:25:52;3.97;;;2.63;;
42886;SDS011;29032;56.028;92.904;2023-07-20T06:30:58;2.92;;;2.47;;
42886;SDS011;29032;56.028;92.904;2023-07-20T06:36:03;8.32;;;2.80;;
42886;SDS011;29032;56.028;92.904;2023-07-20T06:41:05;2.50;;;2.30;;
42886;SDS011;29032;56.028;92.904;2023-07-20T06:46:07;4.40;;;2.60;;
42886;SDS011;29032;56.028;92.904;2023-07-20T06:51:11;3.42;;;2.60;;
42886;SDS011;29032;56.028;92.904;2023-07-20T06:56:13;4.65;;;2.47;;
42886;SDS011;29032;56.028;92.904;2023-07-20T07:01:15;2.80;;;2.60;;
42886;SDS011;29032;56.028;92.904;2023-07-20T07:06:19;4.03;;;2.65;;
42886;SDS011;29032;56.028;92.904;2023-07-20T07:11:21;4.57;;;2.72;;
42886;SDS011;29032;56.028;92.904;2023-07-20T07:16:25;4.35;;;2.60;;
42886;SDS011;29032;56.028;92.904;2023-07-20T07:21:28;3.55;;;2.47;;
42886;SDS011;29032;56.028;92.904;2023-07-20T07:26:30;4.20;;;2.58;;
42886;SDS011;29032;56.028;92.904;2023-07-20T07:31:34;4.50;;;2.25;;
42886;SDS011;29032;56.028;92.904;2023-07-20T07:36:38;5.28;;;2.72;;
42886;SDS011;29032;56.028;92.904;2023-07-20T07:41:40;10.93;;;3.05;;
42886;SDS011;29032;56.028;92.904;2023-07-20T07:46:42;5.25;;;2.70;;
42886;SDS011;29032;56.028;92.904;2023-07-20T07:51:45;2.60;;;2.40;;
42886;SDS011;29032;56.028;92.904;2023-07-20T07:56:47;5.47;;;2.72;;
42886;SDS011;29032;56.028;92.904;2023-07-20T08:01:49;3.38;;;2.40;;
42886;SDS011;29032;56.028;92.904;2023-07-20T08:06:53;2.80;;;2.60;;
42886;SDS011;29032;56.028;92.904;2023-07-20T08:11:55;3.28;;;2.60;;
42886;SDS011;29032;56.028;92.904;2023-07-20T08:16:57;3.33;;;2.60;;
42886;SDS011;29032;56.028;92.904;2023-07-20T08:22:00;3.15;;;2.50;;
42886;SDS011;29032;56.028;92.904;2023-07-20T08:27:03;2.47;;;2.28;;
42886;SDS011;29032;56.028;92.904;2023-07-20T08:32:05;4.20;;;2.58;;
42886;SDS011;29032;56.028;92.904;2023-07-20T08:37:09;4.47;;;2.70;;
42886;SDS011;29032;56.028;92.904;2023-07-20T08:42:11;4.07;;;2.80;;
42886;SDS011;29032;56.028;92.904;2023-07-20T08:47:15;6.03;;;2.90;;
42886;SDS011;29032;56.028;92.904;2023-07-20T08:52:19;4.40;;;2.80;;
42886;SDS011;29032;56.028;92.904;2023-07-20T08:57:21;4.60;;;2.67;;
42886;SDS011;29032;56.028;92.904;2023-07-20T09:02:24;6.70;;;3.30;;
42886;SDS011;29032;56.028;92.904;2023-07-20T09:07:29;3.10;;;2.90;;
42886;SDS011;29032;56.028;92.904;2023-07-20T09:12:32;6.35;;;2.60;;
42886;SDS011;29032;56.028;92.904;2023-07-20T09:17:36;5.97;;;2.70;;
42886;SDS011;29032;56.028;92.904;2023-07-20T09:22:40;3.92;;;2.65;;
42886;SDS011;29032;56.028;92.904;2023-07-20T09:27:43;5.55;;;2.97;;
42886;SDS011;29032;56.028;92.904;2023-07-20T09:32:46;3.90;;;2.40;;
42886;SDS011;29032;56.028;92.904;2023-07-20T09:37:54;2.42;;;2.22;;
42886;SDS011;29032;56.028;92.904;2023-07-20T09:42:59;4.53;;;2.50;;
42886;SDS011;29032;56.028;92.904;2023-07-20T09:48:03;3.72;;;2.83;;
42886;SDS011;29032;56.028;92.904;2023-07-20T09:53:07;3.13;;;2.35;;
42886;SDS011;29032;56.028;92.904;2023-07-20T09:58:11;4.68;;;3.03;;
42886;SDS011;29032;56.028;92.904;2023-07-20T10:03:14;6.65;;;3.13;;
42886;SDS011;29032;56.028;92.904;2023-07-20T10:08:21;8.52;;;3.20;;
42886;SDS011;29032;56.028;92.904;2023-07-20T10:13:26;4.28;;;3.00;;
42886;SDS011;29032;56.028;92.904;2023-07-20T10:18:31;3.27;;;2.97;;
42886;SDS011;29032;56.028;92.904;2023-07-20T10:23:40;3.88;;;2.65;;
42886;SDS011;29032;56.028;92.904;2023-07-20T10:28:43;3.55;;;2.70;;
42886;SDS011;29032;56.028;92.904;2023-07-20T10:33:45;5.47;;;3.10;;
42886;SDS011;29032;56.028;92.904;2023-07-20T10:38:53;3.42;;;2.70;;
42886;SDS011;29032;56.028;92.904;2023-07-20T10:43:58;3.35;;;2.53;;
42886;SDS011;29032;56.028;92.904;2023-07-20T10:49:02;3.40;;;2.95;;
42886;SDS011;29032;56.028;92.904;2023-07-20T10:54:08;5.13;;;2.75;;
42886;SDS011;29032;56.028;92.904;2023-07-20T10:59:37;3.45;;;2.83;;
42886;SDS011;29032;56.028;92.904;2023-07-20T11:04:39;3.50;;;3.05;;
42886;SDS011;29032;56.028;92.904;2023-07-20T11:09:44;3.50;;;2.60;;
42886;SDS011;29032;56.028;92.904;2023-07-20T11:14:52;3.97;;;3.25;;
42886;SDS011;29032;56.028;92.904;2023-07-20T11:19:56;3.75;;;2.90;;
42886;SDS011;29032;56.028;92.904;2023-07-20T11:25:00;6.03;;;2.88;;
42886;SDS011;29032;56.028;92.904;2023-07-20T11:30:03;5.53;;;2.75;;
42886;SDS011;29032;56.028;92.904;2023-07-20T11:35:05;4.10;;;3.10;;
42886;SDS011;29032;56.028;92.904;2023-07-20T11:40:15;4.57;;;3.10;;
42886;SDS011;29032;56.028;92.904;2023-07-20T11:45:17;3.65;;;2.63;;
42886;SDS011;29032;56.028;92.904;2023-07-20T11:50:20;3.35;;;3.03;;
42886;SDS011;29032;56.028;92.904;2023-07-20T11:55:24;4.68;;;3.40;;
42886;SDS011;29032;56.028;92.904;2023-07-20T12:00:26;4.78;;;3.10;;
42886;SDS011;29032;56.028;92.904;2023-07-20T12:05:28;3.90;;;2.83;;
42886;SDS011;29032;56.028;92.904;2023-07-20T12:10:31;3.08;;;2.78;;
42886;SDS011;29032;56.028;92.904;2023-07-20T12:15:34;5.32;;;2.75;;
42886;SDS011;29032;56.028;92.904;2023-07-20T12:20:36;8.55;;;3.40;;
42886;SDS011;29032;56.028;92.904;2023-07-20T12:25:41;3.15;;;2.80;;
42886;SDS011;29032;56.028;92.904;2023-07-20T12:30:43;4.33;;;3.03;;
42886;SDS011;29032;56.028;92.904;2023-07-20T12:35:46;5.30;;;3.30;;
42886;SDS011;29032;56.028;92.904;2023-07-20T12:40:49;3.75;;;2.83;;
42886;SDS011;29032;56.028;92.904;2023-07-20T12:45:52;3.75;;;2.90;;
42886;SDS011;29032;56.028;92.904;2023-07-20T12:50:54;3.20;;;2.90;;
42886;SDS011;29032;56.028;92.904;2023-07-20T12:55:58;6.50;;;3.28;;
42886;SDS011;29032;56.028;92.904;2023-07-20T13:01:00;4.22;;;2.80;;
42886;SDS011;29032;56.028;92.904;2023-07-20T13:06:02;6.95;;;3.10;;
42886;SDS011;29032;56.028;92.904;2023-07-20T13:11:05;4.20;;;2.80;;
42886;SDS011;29032;56.028;92.904;2023-07-20T13:16:07;5.03;;;2.80;;
42886;SDS011;29032;56.028;92.904;2023-07-20T13:21:10;4.57;;;2.83;;
42886;SDS011;29032;56.028;92.904;2023-07-20T13:26:13;41.53;;;5.97;;
42886;SDS011;29032;56.028;92.904;2023-07-20T13:31:15;5.45;;;2.78;;
42886;SDS011;29032;56.028;92.904;2023-07-20T13:36:17;4.55;;;3.30;;
42886;SDS011;29032;56.028;92.904;2023-07-20T13:41:21;6.43;;;3.78;;
42886;SDS011;29032;56.028;92.904;2023-07-20T13:46:23;7.00;;;3.33;;
42886;SDS011;29032;56.028;92.904;2023-07-20T13:51:25;5.38;;;3.30;;
42886;SDS011;29032;56.028;92.904;2023-07-20T13:56:28;4.93;;;3.33;;
42886;SDS011;29032;56.028;92.904;2023-07-20T14:01:30;4.90;;;3.67;;
42886;SDS011;29032;56.028;92.904;2023-07-20T14:06:33;14.18;;;3.80;;
42886;SDS011;29032;56.028;92.904;2023-07-20T14:11:36;5.88;;;3.40;;
42886;SDS011;29032;56.028;92.904;2023-07-20T14:16:38;6.95;;;3.65;;
42886;SDS011;29032;56.028;92.904;2023-07-20T14:21:40;6.32;;;3.72;;
42886;SDS011;29032;56.028;92.904;2023-07-20T14:26:44;8.13;;;4.05;;
42886;SDS011;29032;56.028;92.904;2023-07-20T14:31:46;5.93;;;3.95;;
42886;SDS011;29032;56.028;92.904;2023-07-20T14:36:48;6.88;;;4.53;;
42886;SDS011;29032;56.028;92.904;2023-07-20T14:41:52;17.30;;;6.55;;
42886;SDS011;29032;56.028;92.904;2023-07-20T14:46:54;8.93;;;5.97;;
42886;SDS011;29032;56.028;92.904;2023-07-20T14:51:56;8.40;;;5.60;;
42886;SDS011;29032;56.028;92.904;2023-07-20T14:57:00;11.18;;;6.60;;
42886;SDS011;29032;56.028;92.904;2023-07-20T15:02:02;8.13;;;6.35;;
42886;SDS011;29032;56.028;92.904;2023-07-20T15:07:04;7.97;;;5.47;;
42886;SDS011;29032;56.028;92.904;2023-07-20T15:12:08;6.72;;;4.50;;
42886;SDS011;29032;56.028;92.904;2023-07-20T15:17:11;6.68;;;4.13;;
42886;SDS011;29032;56.028;92.904;2023-07-20T15:22:13;4.30;;;3.90;;
42886;SDS011;29032;56.028;92.904;2023-07-20T15:27:16;5.38;;;4.03;;
42886;SDS011;29032;56.028;92.904;2023-07-20T15:32:18;11.98;;;3.97;;
42886;SDS011;29032;56.028;92.904;2023-07-20T15:37:20;10.50;;;3.97;;
42886;SDS011;29032;56.028;92.904;2023-07-20T15:42:24;8.07;;;3.80;;
42886;SDS011;29032;56.028;92.904;2023-07-20T15:47:26;6.20;;;4.25;;
42886;SDS011;29032;56.028;92.904;2023-07-20T15:52:28;8.65;;;3.65;;
42886;SDS011;29032;56.028;92.904;2023-07-20T15:57:32;7.43;;;3.80;;
42886;SDS011;29032;56.028;92.904;2023-07-20T16:02:34;7.50;;;3.88;;
42886;SDS011;29032;56.028;92.904;2023-07-20T16:07:38;8.80;;;4.68;;
42886;SDS011;29032;56.028;92.904;2023-07-20T16:17:44;9.05;;;5.00;;
42886;SDS011;29032;56.028;92.904;2023-07-20T16:22:46;11.05;;;4.80;;
42886;SDS011;29032;56.028;92.904;2023-07-20T16:27:50;8.73;;;4.78;;
42886;SDS011;29032;56.028;92.904;2023-07-20T16:32:52;5.15;;;4.20;;
42886;SDS011;29032;56.028;92.904;2023-07-20T16:37:55;6.57;;;4.68;;
42886;SDS011;29032;56.028;92.904;2023-07-20T16:42:58;7.68;;;4.13;;
42886;SDS011;29032;56.028;92.904;2023-07-20T16:48:00;4.63;;;3.92;;
42886;SDS011;29032;56.028;92.904;2023-07-20T16:53:02;4.13;;;3.72;;
42886;SDS011;29032;56.028;92.904;2023-07-20T16:58:06;5.03;;;4.10;;
42886;SDS011;29032;56.028;92.904;2023-07-20T17:03:08;6.00;;;4.30;;
42886;SDS011;29032;56.028;92.904;2023-07-20T17:08:10;6.40;;;3.42;;
42886;SDS011;29032;56.028;92.904;2023-07-20T17:13:14;4.68;;;3.67;;
42886;SDS011;29032;56.028;92.904;2023-07-20T17:18:16;6.22;;;3.40;;
42886;SDS011;29032;56.028;92.904;2023-07-20T17:23:19;4.82;;;3.50;;
42886;SDS011;29032;56.028;92.904;2023-07-20T17:28:22;4.95;;;3.30;;
42886;SDS011;29032;56.028;92.904;2023-07-20T17:33:24;5.90;;;3.67;;
42886;SDS011;29032;56.028;92.904;2023-07-20T17:38:26;4.10;;;3.45;;
42886;SDS011;29032;56.028;92.904;2023-07-20T17:43:30;5.40;;;3.55;;
42886;SDS011;29032;56.028;92.904;2023-07-20T17:48:32;4.97;;;3.80;;
42886;SDS011;29032;56.028;92.904;2023-07-20T17:53:34;4.88;;;3.88;;
42886;SDS011;29032;56.028;92.904;2023-07-20T17:58:38;4.22;;;3.58;;
42886;SDS011;29032;56.028;92.904;2023-07-20T18:03:40;7.95;;;3.70;;
42886;SDS011;29032;56.028;92.904;2023-07-20T18:08:42;5.05;;;3.50;;
42886;SDS011;29032;56.028;92.904;2023-07-20T18:13:45;5.03;;;3.72;;
42886;SDS011;29032;56.028;92.904;2023-07-20T18:18:47;5.55;;;3.28;;
42886;SDS011;29032;56.028;92.904;2023-07-20T18:23:49;5.63;;;3.80;;
42886;SDS011;29032;56.028;92.904;2023-07-20T18:28:53;5.25;;;3.78;;
42886;SDS011;29032;56.028;92.904;2023-07-20T18:33:55;4.85;;;3.60;;
42886;SDS011;29032;56.028;92.904;2023-07-20T18:38:57;4.05;;;3.58;;
42886;SDS011;29032;56.028;92.904;2023-07-20T18:44:01;3.80;;;3.35;;
42886;SDS011;29032;56.028;92.904;2023-07-20T18:49:03;3.58;;;3.25;;
42886;SDS011;29032;56.028;92.904;2023-07-20T18:54:05;3.88;;;3.28;;
42886;SDS011;29032;56.028;92.904;2023-07-20T18:59:09;8.05;;;3.30;;
42886;SDS011;29032;56.028;92.904;2023-07-20T19:04:11;5.00;;;3.53;;
42886;SDS011;29032;56.028;92.904;2023-07-20T19:09:13;4.50;;;3.20;;
42886;SDS011;29032;56.028;92.904;2023-07-20T19:14:16;3.70;;;3.20;;
42886;SDS011;29032;56.028;92.904;2023-07-20T19:19:18;3.53;;;3.20;;
42886;SDS011;29032;56.028;92.904;2023-07-20T19:24:20;3.75;;;3.25;;
42886;SDS011;29032;56.028;92.904;2023-07-20T19:29:24;4.38;;;3.45;;
42886;SDS011;29032;56.028;92.904;2023-07-20T19:34:26;4.45;;;3.50;;
42886;SDS011;29032;56.028;92.904;2023-07-20T19:39:28;6.10;;;3.42;;
42886;SDS011;29032;56.028;92.904;2023-07-20T19:44:31;3.90;;;3.38;;
42886;SDS011;29032;56.028;92.904;2023-07-20T19:49:33;4.47;;;3.75;;
42886;SDS011;29032;56.028;92.904;2023-07-20T19:54:36;4.75;;;3.97;;
42886;SDS011;29032;56.028;92.904;2023-07-20T19:59:39;3.55;;;3.25;;
42886;SDS011;29032;56.028;92.904;2023-07-20T20:04:41;4.85;;;3.78;;
42886;SDS011;29032;56.028;92.904;2023-07-20T20:09:43;3.63;;;3.33;;
42886;SDS011;29032;56.028;92.904;2023-07-20T20:14:47;5.32;;;3.80;;
42886;SDS011;29032;56.028;92.904;2023-07-20T20:19:49;4.10;;;3.70;;
42886;SDS011;29032;56.028;92.904;2023-07-20T20:24:51;4.65;;;4.03;;
42886;SDS011;29032;56.028;92.904;2023-07-20T20:29:55;5.00;;;3.75;;
42886;SDS011;29032;56.028;92.904;2023-07-20T20:34:57;4.18;;;3.78;;
42886;SDS011;29032;56.028;92.904;2023-07-20T20:39:59;4.30;;;3.90;;
42886;SDS011;29032;56.028;92.904;2023-07-20T20:45:03;5.43;;;4.00;;
42886;SDS011;29032;56.028;92.904;2023-07-20T20:50:06;4.63;;;4.00;;
42886;SDS011;29032;56.028;92.904;2023-07-20T20:55:09;3.90;;;3.30;;
42886;SDS011;29032;56.028;92.904;2023-07-20T21:00:13;4.15;;;3.67;;
42886;SDS011;29032;56.028;92.904;2023-07-20T21:05:15;4.43;;;3.33;;
42886;SDS011;29032;56.028;92.904;2023-07-20T21:10:17;6.25;;;3.53;;
42886;SDS011;29032;56.028;92.904;2023-07-20T21:15:21;5.18;;;3.80;;
42886;SDS011;29032;56.028;92.904;2023-07-20T21:20:23;5.10;;;3.53;;
42886;SDS011;29032;56.028;92.904;2023-07-20T21:25:26;8.05;;;4.13;;
42886;SDS011;29032;56.028;92.904;2023-07-20T21:30:32;4.00;;;3.50;;
42886;SDS011;29032;56.028;92.904;2023-07-20T21:35:35;4.40;;;3.22;;
42886;SDS011;29032;56.028;92.904;2023-07-20T21:40:38;4.43;;;3.40;;
42886;SDS011;29032;56.028;92.904;2023-07-20T21:45:41;5.07;;;3.75;;
42886;SDS011;29032;56.028;92.904;2023-07-20T21:50:48;5.63;;;3.83;;
42886;SDS011;29032;56.028;92.904;2023-07-20T21:55:50;5.90;;;3.95;;
42886;SDS011;29032;56.028;92.904;2023-07-20T22:00:54;4.90;;;4.07;;
42886;SDS011;29032;56.028;92.904;2023-07-20T22:05:56;4.30;;;3.90;;
42886;SDS011;29032;56.028;92.904;2023-07-20T22:11:04;4.47;;;4.03;;
42886;SDS011;29032;56.028;92.904;2023-07-20T22:16:08;5.03;;;4.53;;
42886;SDS011;29032;56.028;92.904;2023-07-20T22:21:10;6.60;;;5.07;;
42886;SDS011;29032;56.028;92.904;2023-07-20T22:26:12;5.50;;;4.60;;
42886;SDS011;29032;56.028;92.904;2023-07-20T22:31:15;6.13;;;4.70;;
42886;SDS011;29032;56.028;92.904;2023-07-20T22:36:17;6.70;;;4.35;;
42886;SDS011;29032;56.028;92.904;2023-07-20T22:41:19;4.30;;;3.90;;
42886;SDS011;29032;56.028;92.904;2023-07-20T22:46:23;4.63;;;3.85;;
42886;SDS011;29032;56.028;92.904;2023-07-20T22:51:25;4.88;;;4.28;;
42886;SDS011;29032;56.028;92.904;2023-07-20T22:56:27;5.00;;;4.00;;
42886;SDS011;29032;56.028;92.904;2023-07-20T23:01:30;5.07;;;4.00;;
42886;SDS011;29032;56.028;92.904;2023-07-20T23:06:33;5.95;;;4.20;;
42886;SDS011;29032;56.028;92.904;2023-07-20T23:11:35;6.60;;;4.07;;
42886;SDS011;29032;56.028;92.904;2023-07-20T23:16:38;4.38;;;3.92;;
42886;SDS011;29032;56.028;92.904;2023-07-20T23:21:40;5.80;;;3.97;;
42886;SDS011;29032;56.028;92.904;2023-07-20T23:26:42;6.88;;;4.22;;
42886;SDS011;29032;56.028;92.904;2023-07-20T23:31:46;5.20;;;4.28;;
42886;SDS011;29032;56.028;92.904;2023-07-20T23:36:48;8.55;;;4.20;;
42886;SDS011;29032;56.028;92.904;2023-07-20T23:41:50;4.82;;;4.20;;
42886;SDS011;29032;56.028;92.904;2023-07-20T23:46:53;6.90;;;4.32;;
42886;SDS011;29032;56.028;92.904;2023-07-20T23:51:55;4.70;;;4.18;;
42886;SDS011;29032;56.028;92.904;2023-07-20T23:56:58;5.18;;;4.28;;
